createdAt,value
2018-12-27T00:03:19.453Z,3.30
2018-12-27T00:06:08.059Z,3.30
2018-12-27T00:08:56.247Z,3.20
2018-12-27T00:11:46.543Z,3.20
2018-12-27T00:14:17.913Z,3.20
2018-12-27T00:16:47.125Z,3.10
2018-12-27T00:19:35.322Z,3.10
2018-12-27T00:22:06.081Z,3.10
2018-12-27T00:24:55.790Z,3.10
2018-12-27T00:30:23.616Z,3.00
2018-12-27T00:33:12.059Z,3.00
2018-12-27T00:36:02.551Z,3.00
2018-12-27T00:38:51.604Z,3.00
2018-12-27T00:41:40.366Z,3.00
2018-12-27T00:44:29.971Z,3.00
2018-12-27T00:53:16.184Z,3.10
2018-12-27T00:55:47.685Z,2.90
2018-12-27T00:58:35.930Z,2.90
2018-12-27T01:01:24.645Z,2.90
2018-12-27T01:04:13.343Z,2.90
2018-12-27T01:06:43.427Z,2.90
2018-12-27T01:09:31.618Z,2.80
2018-12-27T01:12:01.061Z,2.80
2018-12-27T01:14:49.320Z,2.70
2018-12-27T01:17:37.625Z,2.70
2018-12-27T01:20:25.793Z,2.60
2018-12-27T01:23:14.012Z,2.60
2018-12-27T01:26:02.238Z,2.50
2018-12-27T01:28:31.303Z,2.40
2018-12-27T01:31:00.397Z,2.40
2018-12-27T01:33:48.654Z,2.30
2018-12-27T01:36:36.839Z,2.30
2018-12-27T01:39:25.186Z,2.20
2018-12-27T01:42:13.409Z,2.20
2018-12-27T01:45:01.609Z,2.10
2018-12-27T01:47:30.857Z,2.10
2018-12-27T01:50:19.067Z,2.00
2018-12-27T01:53:07.271Z,2.00
2018-12-27T01:55:55.470Z,2.00
2018-12-27T01:58:43.673Z,2.00
2018-12-27T02:01:32.060Z,2.10
2018-12-27T02:04:20.379Z,2.10
2018-12-27T02:07:01.535Z,2.20
2018-12-27T02:09:42.011Z,2.20
2018-12-27T02:12:11.067Z,2.20
2018-12-27T02:14:40.344Z,2.20
2018-12-27T02:17:28.849Z,2.30
2018-12-27T02:20:17.195Z,2.30
2018-12-27T02:22:46.368Z,2.30
2018-12-27T02:25:34.579Z,2.30
2018-12-27T02:28:03.929Z,2.30
2018-12-27T02:30:33.280Z,2.40
2018-12-27T02:33:21.677Z,2.40
2018-12-27T02:36:09.924Z,2.40
2018-12-27T02:38:58.305Z,2.50
2018-12-27T02:41:46.558Z,2.50
2018-12-27T02:44:34.846Z,2.50
2018-12-27T02:47:23.161Z,2.50
2018-12-27T02:49:52.265Z,2.60
2018-12-27T02:52:40.565Z,2.60
2018-12-27T02:55:09.728Z,2.60
2018-12-27T02:57:58.011Z,2.60
2018-12-27T03:00:46.220Z,2.50
2018-12-27T03:03:15.488Z,2.50
2018-12-27T03:05:44.581Z,2.50
2018-12-27T03:08:13.658Z,2.50
2018-12-27T03:10:42.769Z,2.40
2018-12-27T03:13:30.957Z,2.30
2018-12-27T03:16:19.169Z,2.30
2018-12-27T03:19:07.336Z,2.20
2018-12-27T03:21:55.531Z,2.10
2018-12-27T03:24:24.594Z,2.00
2018-12-27T03:27:12.883Z,2.00
2018-12-27T03:30:01.098Z,2.00
2018-12-27T03:32:49.263Z,2.00
2018-12-27T03:38:25.329Z,2.00
2018-12-27T03:41:13.540Z,2.00
2018-12-27T03:43:42.899Z,2.00
2018-12-27T03:46:31.183Z,2.00
2018-12-27T03:49:19.636Z,2.00
2018-12-27T03:52:07.874Z,2.00
2018-12-27T03:58:03.353Z,2.00
2018-12-27T04:00:51.542Z,2.00
2018-12-27T04:03:39.780Z,2.00
2018-12-27T04:06:20.236Z,2.00
2018-12-27T04:09:01.068Z,1.90
2018-12-27T04:11:41.525Z,1.80
2018-12-27T04:14:23.189Z,1.80
2018-12-27T04:17:04.535Z,1.70
2018-12-27T04:19:45.208Z,1.60
2018-12-27T04:22:26.458Z,1.60
2018-12-27T04:25:07.377Z,1.50
2018-12-27T04:27:48.006Z,1.50
2018-12-27T04:30:28.397Z,1.50
2018-12-27T04:33:09.269Z,1.40
2018-12-27T04:35:51.199Z,1.30
2018-12-27T04:38:32.212Z,1.30
2018-12-27T04:41:12.971Z,1.40
2018-12-27T04:43:53.604Z,1.40
2018-12-27T04:46:34.379Z,1.30
2018-12-27T04:49:15.086Z,1.30
2018-12-27T04:51:56.039Z,1.20
2018-12-27T04:54:36.857Z,1.20
2018-12-27T04:57:16.167Z,1.10
2018-12-27T05:00:04.385Z,1.00
2018-12-27T05:02:52.555Z,1.00
2018-12-27T05:05:40.765Z,0.90
2018-12-27T05:08:10.395Z,0.80
2018-12-27T05:10:58.527Z,0.80
2018-12-27T05:13:46.872Z,0.70
2018-12-27T05:16:35.147Z,0.70
2018-12-27T05:19:23.272Z,0.60
2018-12-27T05:22:11.461Z,0.60
2018-12-27T05:27:53.481Z,0.50
2018-12-27T05:30:41.625Z,0.50
2018-12-27T05:33:29.768Z,0.50
2018-12-27T05:36:18.070Z,0.50
2018-12-27T05:39:06.354Z,0.50
2018-12-27T05:41:35.393Z,0.50
2018-12-27T05:44:04.495Z,0.50
2018-12-27T05:49:59.938Z,0.50
2018-12-27T05:52:28.935Z,0.50
2018-12-27T05:55:17.150Z,0.60
2018-12-27T05:58:05.392Z,0.60
2018-12-27T06:00:53.479Z,0.60
2018-12-27T06:03:41.667Z,0.60
2018-12-27T06:06:29.864Z,0.60
2018-12-27T06:09:10.945Z,0.70
2018-12-27T06:11:51.819Z,0.60
2018-12-27T06:14:32.189Z,0.60
2018-12-27T06:17:13.464Z,0.60
2018-12-27T06:19:53.948Z,0.50
2018-12-27T06:22:34.733Z,0.50
2018-12-27T06:25:15.410Z,0.40
2018-12-27T06:27:55.981Z,0.30
2018-12-27T06:30:25.068Z,0.30
2018-12-27T06:33:13.240Z,0.10
2018-12-27T06:36:01.365Z,0.10
2018-12-27T06:38:49.440Z,0.00
2018-12-27T06:41:37.641Z,0.00
2018-12-27T06:44:25.817Z,-0.10
2018-12-27T06:47:13.997Z,-0.10
2018-12-27T06:52:57.557Z,-0.20
2018-12-27T06:55:45.767Z,-0.20
2018-12-27T06:58:37.753Z,-0.20
2018-12-27T07:01:23.841Z,-0.20
2018-12-27T07:04:12.043Z,-0.20
2018-12-27T07:07:00.355Z,-0.20
2018-12-27T07:09:48.791Z,-0.20
2018-12-27T07:12:37.301Z,-0.20
2018-12-27T07:15:25.606Z,-0.20
2018-12-27T07:18:06.252Z,0.00
2018-12-27T07:20:46.795Z,0.20
2018-12-27T07:23:27.461Z,0.30
2018-12-27T07:26:08.419Z,0.30
2018-12-27T07:28:49.128Z,0.20
2018-12-27T07:31:18.471Z,0.10
2018-12-27T07:34:07.040Z,0.10
2018-12-27T07:36:55.432Z,0.00
2018-12-27T07:39:43.686Z,0.00
2018-12-27T07:42:31.841Z,0.00
2018-12-27T07:45:20.216Z,0.00
2018-12-27T07:48:08.331Z,-0.10
2018-12-27T07:50:56.446Z,-0.10
2018-12-27T07:53:44.689Z,-0.10
2018-12-27T07:56:33.027Z,-0.10
2018-12-27T07:59:21.229Z,-0.10
2018-12-27T08:01:50.274Z,-0.10
2018-12-27T08:04:38.358Z,0.00
2018-12-27T08:07:07.351Z,0.10
2018-12-27T08:09:55.620Z,0.10
2018-12-27T08:15:37.432Z,0.20
2018-12-27T08:18:25.632Z,0.30
2018-12-27T08:20:55.672Z,0.40
2018-12-27T08:26:19.307Z,0.60
2018-12-27T08:28:49.497Z,0.70
2018-12-27T08:31:40.215Z,0.80
2018-12-27T08:34:30.363Z,1.00
2018-12-27T08:37:00.829Z,1.10
2018-12-27T08:39:31.014Z,1.30
2018-12-27T08:42:19.389Z,1.50
2018-12-27T08:45:07.911Z,1.60
2018-12-27T08:47:56.131Z,1.80
2018-12-27T08:50:25.571Z,2.00
2018-12-27T08:53:14.089Z,2.10
2018-12-27T08:58:56.539Z,2.60
2018-12-27T09:01:46.377Z,2.80
2018-12-27T09:04:36.311Z,2.90
2018-12-27T09:07:05.791Z,3.00
2018-12-27T09:15:23.322Z,3.30
2018-12-27T09:17:53.698Z,3.40
2018-12-27T09:20:23.243Z,3.50
2018-12-27T09:23:14.602Z,3.70
2018-12-27T09:25:45.513Z,3.80
2018-12-27T09:28:33.644Z,3.90
2018-12-27T09:31:04.275Z,4.00
2018-12-27T09:33:55.095Z,4.10
2018-12-27T09:36:43.345Z,4.10
2018-12-27T09:42:23.617Z,4.00
2018-12-27T09:45:12.573Z,4.00
2018-12-27T09:50:55.021Z,3.90
2018-12-27T09:53:30.175Z,3.90
2018-12-27T09:56:18.429Z,3.90
2018-12-27T09:59:06.879Z,4.00
2018-12-27T10:01:55.248Z,4.10
2018-12-27T10:04:26.002Z,4.20
2018-12-27T10:07:14.183Z,4.40
2018-12-27T10:09:55.066Z,4.80
2018-12-27T10:12:35.458Z,4.90
2018-12-27T10:15:15.914Z,5.10
2018-12-27T10:17:56.897Z,5.40
2018-12-27T10:20:37.921Z,5.60
2018-12-27T10:23:18.693Z,5.70
2018-12-27T10:25:59.467Z,5.50
2018-12-27T10:28:40.740Z,5.40
2018-12-27T10:31:21.521Z,5.40
2018-12-27T10:34:02.374Z,5.30
2018-12-27T10:36:43.190Z,5.30
2018-12-27T10:39:17.119Z,5.20
2018-12-27T10:41:46.250Z,5.10
2018-12-27T10:44:34.562Z,5.00
2018-12-27T10:47:22.750Z,5.00
2018-12-27T10:50:10.946Z,5.00
2018-12-27T10:52:59.049Z,5.00
2018-12-27T10:55:47.171Z,4.90
2018-12-27T11:01:29.163Z,4.90
2018-12-27T11:04:17.327Z,4.90
2018-12-27T11:07:05.523Z,4.90
2018-12-27T11:09:46.987Z,5.00
2018-12-27T11:12:27.439Z,5.10
2018-12-27T11:15:07.963Z,5.20
2018-12-27T11:17:49.049Z,5.30
2018-12-27T11:20:30.267Z,5.40
2018-12-27T11:23:11.278Z,5.50
2018-12-27T11:25:51.743Z,5.50
2018-12-27T11:28:33.992Z,5.60
2018-12-27T11:31:15.007Z,5.60
2018-12-27T11:33:56.000Z,5.60
2018-12-27T11:36:37.565Z,5.60
2018-12-27T11:39:18.096Z,5.60
2018-12-27T11:41:47.365Z,5.50
2018-12-27T11:47:43.914Z,5.50
2018-12-27T11:50:32.211Z,5.50
2018-12-27T11:53:22.884Z,5.60
2018-12-27T11:56:11.106Z,5.60
2018-12-27T11:58:40.321Z,5.60
2018-12-27T12:01:28.762Z,5.60
2018-12-27T12:04:17.657Z,5.60
2018-12-27T12:06:47.160Z,5.70
2018-12-27T12:09:16.125Z,5.80
2018-12-27T12:11:45.385Z,5.90
2018-12-27T12:14:33.570Z,6.00
2018-12-27T12:17:21.773Z,6.00
2018-12-27T12:19:50.883Z,6.10
2018-12-27T12:22:19.984Z,6.20
2018-12-27T12:25:08.375Z,6.20
2018-12-27T12:27:56.525Z,6.30
2018-12-27T12:30:25.657Z,6.30
2018-12-27T12:32:55.206Z,6.30
2018-12-27T12:35:24.313Z,6.30
2018-12-27T12:38:12.681Z,6.20
2018-12-27T12:41:01.423Z,6.10
2018-12-27T12:43:49.777Z,6.10
2018-12-27T12:46:37.958Z,6.00
2018-12-27T12:49:26.122Z,6.00
2018-12-27T12:52:16.093Z,5.90
2018-12-27T12:54:45.296Z,5.90
2018-12-27T12:57:33.487Z,5.90
2018-12-27T13:00:21.645Z,5.80
2018-12-27T13:02:50.835Z,5.80
2018-12-27T13:05:19.986Z,5.70
2018-12-27T13:08:01.157Z,5.70
2018-12-27T13:10:30.287Z,5.70
2018-12-27T13:13:10.733Z,5.70
2018-12-27T13:15:59.043Z,5.70
2018-12-27T13:18:47.554Z,5.60
2018-12-27T13:21:16.704Z,5.60
2018-12-27T13:24:04.867Z,5.60
2018-12-27T13:26:33.965Z,5.50
2018-12-27T13:29:22.178Z,5.50
2018-12-27T13:35:17.850Z,5.50
2018-12-27T13:38:06.844Z,5.40
2018-12-27T13:40:55.176Z,5.40
2018-12-27T13:43:43.311Z,5.30
2018-12-27T13:46:31.512Z,5.30
2018-12-27T13:49:19.641Z,5.30
2018-12-27T13:52:08.289Z,5.30
2018-12-27T13:54:37.441Z,5.20
2018-12-27T13:57:25.751Z,5.20
2018-12-27T13:59:54.804Z,5.20
2018-12-27T14:02:42.997Z,5.20
2018-12-27T14:08:38.428Z,5.10
2018-12-27T14:11:07.482Z,5.10
2018-12-27T14:16:49.308Z,5.00
2018-12-27T14:19:37.520Z,5.00
2018-12-27T14:22:25.597Z,5.00
2018-12-27T14:24:57.851Z,5.00
2018-12-27T14:27:25.324Z,4.90
2018-12-27T14:30:13.498Z,4.90
2018-12-27T14:32:42.826Z,4.90
2018-12-27T14:35:31.644Z,4.80
2018-12-27T14:38:01.715Z,4.80
2018-12-27T14:40:30.759Z,4.80
2018-12-27T14:43:19.066Z,4.80
2018-12-27T14:46:07.352Z,4.70
2018-12-27T14:48:56.935Z,4.70
2018-12-27T14:51:25.983Z,4.60
2018-12-27T14:54:14.149Z,4.60
2018-12-27T14:57:02.251Z,4.60
2018-12-27T15:02:39.091Z,4.50
2018-12-27T15:05:08.376Z,4.50
2018-12-27T15:07:56.905Z,4.40
2018-12-27T15:10:25.985Z,4.40
2018-12-27T15:13:14.235Z,4.30
2018-12-27T15:15:43.139Z,4.30
2018-12-27T15:18:31.400Z,4.20
2018-12-27T15:21:19.743Z,4.20
2018-12-27T15:24:08.187Z,4.20
2018-12-27T15:26:56.353Z,4.20
2018-12-27T15:29:44.475Z,4.10
2018-12-27T15:32:32.687Z,4.10
2018-12-27T15:35:20.910Z,4.10
2018-12-27T15:38:09.057Z,4.10
2018-12-27T15:40:38.091Z,4.00
2018-12-27T15:43:07.167Z,4.00
2018-12-27T15:45:36.350Z,4.00
2018-12-27T15:48:05.504Z,4.00
2018-12-27T15:50:53.649Z,4.00
2018-12-27T15:53:41.706Z,3.90
2018-12-27T15:56:10.775Z,3.90
2018-12-27T15:58:39.856Z,3.90
2018-12-27T16:01:08.895Z,3.90
2018-12-27T16:03:57.476Z,3.90
2018-12-27T16:06:45.784Z,3.90
2018-12-27T16:12:34.164Z,3.80
2018-12-27T16:15:15.127Z,3.80
2018-12-27T16:17:56.356Z,3.70
2018-12-27T16:20:37.060Z,3.70
2018-12-27T16:23:06.368Z,3.70
2018-12-27T16:25:54.688Z,3.70
2018-12-27T16:28:42.810Z,3.70
2018-12-27T16:31:31.001Z,3.60
2018-12-27T16:34:19.175Z,3.60
2018-12-27T16:37:09.137Z,3.60
2018-12-27T16:39:57.402Z,3.60
2018-12-27T16:45:52.820Z,3.60
2018-12-27T16:48:41.089Z,3.60
2018-12-27T16:51:29.232Z,3.60
2018-12-27T16:54:17.520Z,3.60
2018-12-27T17:02:26.688Z,3.60
2018-12-27T17:08:05.877Z,3.50
2018-12-27T17:10:54.077Z,3.40
2018-12-27T17:13:42.659Z,3.40
2018-12-27T17:16:33.148Z,3.30
2018-12-27T17:19:02.320Z,3.30
2018-12-27T17:21:50.409Z,3.30
2018-12-27T17:24:19.552Z,3.30
2018-12-27T17:26:49.209Z,3.30
2018-12-27T17:29:41.742Z,3.20
2018-12-27T17:32:11.012Z,3.10
2018-12-27T17:34:40.098Z,3.10
2018-12-27T17:37:28.320Z,3.00
2018-12-27T17:40:16.672Z,3.00
2018-12-27T17:43:04.919Z,3.00
2018-12-27T17:45:34.173Z,2.90
2018-12-27T17:48:04.053Z,2.90
2018-12-27T17:50:52.384Z,2.90
2018-12-27T17:53:40.517Z,2.90
2018-12-27T17:56:28.719Z,2.90
2018-12-27T17:58:57.848Z,2.80
2018-12-27T18:01:27.145Z,2.80
2018-12-27T18:03:56.279Z,2.80
2018-12-27T18:06:44.795Z,2.80
2018-12-27T18:09:33.155Z,2.80
2018-12-27T18:12:02.324Z,2.80
2018-12-27T18:14:31.384Z,2.80
2018-12-27T18:17:19.588Z,2.70
2018-12-27T18:19:48.676Z,2.70
2018-12-27T18:22:43.782Z,2.70
2018-12-27T18:25:31.995Z,2.60
2018-12-27T18:28:20.319Z,2.60
2018-12-27T18:30:49.577Z,2.60
2018-12-27T18:33:37.797Z,2.50
2018-12-27T18:36:26.095Z,2.50
2018-12-27T18:39:14.358Z,2.50
2018-12-27T18:41:43.593Z,2.40
2018-12-27T18:44:12.661Z,2.40
2018-12-27T18:47:00.949Z,2.40
2018-12-27T18:49:50.509Z,2.40
2018-12-27T18:52:20.607Z,2.40
2018-12-27T18:55:08.923Z,2.30
2018-12-27T18:57:37.967Z,2.30
2018-12-27T19:00:08.751Z,2.30
2018-12-27T19:02:56.861Z,2.30
2018-12-27T19:05:45.113Z,2.30
2018-12-27T19:08:15.297Z,2.30
2018-12-27T19:11:04.932Z,2.20
2018-12-27T19:13:35.989Z,2.20
2018-12-27T19:16:05.259Z,2.20
2018-12-27T19:18:48.020Z,2.20
2018-12-27T19:21:49.137Z,2.20
2018-12-27T19:24:18.281Z,2.10
2018-12-27T19:27:06.516Z,2.10
2018-12-27T19:29:54.731Z,2.00
2018-12-27T19:32:36.032Z,2.00
2018-12-27T19:35:05.444Z,2.00
2018-12-27T19:37:35.652Z,1.90
2018-12-27T19:40:06.051Z,1.90
2018-12-27T19:42:35.534Z,1.90
2018-12-27T19:47:53.384Z,1.80
2018-12-27T19:50:41.677Z,1.80
2018-12-27T19:53:29.950Z,1.80
2018-12-27T19:55:59.115Z,1.80
2018-12-27T19:58:31.021Z,1.70
2018-12-27T20:01:19.300Z,1.70
2018-12-27T20:03:48.353Z,1.70
2018-12-27T20:06:17.761Z,1.70
2018-12-27T20:09:07.105Z,1.70
2018-12-27T20:11:36.227Z,1.70
2018-12-27T20:14:24.532Z,1.80
2018-12-27T20:17:12.784Z,1.80
2018-12-27T20:20:01.341Z,1.80
2018-12-27T20:22:49.580Z,1.80
2018-12-27T20:25:37.869Z,1.80
2018-12-27T20:28:06.885Z,1.80
2018-12-27T20:30:37.181Z,1.80
2018-12-27T20:35:45.511Z,1.90
2018-12-27T20:38:15.386Z,1.90
2018-12-27T20:40:44.955Z,1.90
2018-12-27T20:43:15.978Z,1.90
2018-12-27T20:46:24.239Z,1.90
2018-12-27T20:49:01.055Z,1.90
2018-12-27T20:51:34.527Z,1.90
2018-12-27T20:54:23.503Z,1.90
2018-12-27T20:57:13.143Z,1.90
2018-12-27T21:00:01.334Z,2.00
2018-12-27T21:02:49.703Z,2.00
2018-12-27T21:05:18.787Z,2.00
2018-12-27T21:07:48.229Z,2.00
2018-12-27T21:10:36.602Z,2.00
2018-12-27T21:13:24.719Z,2.00
2018-12-27T21:16:12.970Z,2.10
2018-12-27T21:19:01.217Z,2.10
2018-12-27T21:24:19.485Z,2.30
2018-12-27T21:30:03.422Z,2.40
2018-12-27T21:32:51.768Z,2.40
2018-12-27T21:35:21.184Z,2.40
2018-12-27T21:38:09.397Z,2.40
2018-12-27T21:40:58.125Z,2.40
2018-12-27T21:43:47.114Z,2.40
2018-12-27T21:46:35.709Z,2.50
2018-12-27T21:49:06.408Z,2.50
2018-12-27T21:51:36.447Z,2.50
2018-12-27T21:54:24.842Z,2.50
2018-12-27T21:57:16.850Z,2.60
2018-12-27T22:00:26.264Z,2.60
2018-12-27T22:03:15.658Z,2.60
2018-12-27T22:05:47.589Z,2.60
2018-12-27T22:08:21.175Z,2.60
2018-12-27T22:11:24.475Z,2.60
2018-12-27T22:13:51.940Z,2.60
2018-12-27T22:16:40.206Z,2.70
2018-12-27T22:19:10.013Z,2.70
2018-12-27T22:21:39.125Z,2.70
2018-12-27T22:24:27.413Z,2.70
2018-12-27T22:26:56.579Z,2.80
2018-12-27T22:29:45.101Z,2.80
2018-12-27T22:32:33.318Z,2.80
2018-12-27T22:35:02.507Z,2.80
2018-12-27T22:37:45.117Z,2.80
2018-12-27T22:40:25.779Z,2.80
2018-12-27T22:43:07.166Z,2.80
2018-12-27T22:48:33.380Z,2.70
2018-12-27T22:51:21.757Z,2.70
2018-12-27T22:54:10.157Z,2.70
2018-12-27T22:56:39.345Z,2.80
2018-12-27T22:59:08.415Z,2.80
2018-12-27T23:01:37.582Z,2.90
2018-12-27T23:04:25.896Z,2.90
2018-12-27T23:07:14.184Z,3.00
2018-12-27T23:10:02.374Z,3.00
2018-12-27T23:12:50.525Z,3.00
2018-12-27T23:15:38.735Z,3.00
2018-12-27T23:18:26.966Z,3.10
2018-12-27T23:21:15.133Z,3.10
2018-12-27T23:24:03.338Z,3.00
2018-12-27T23:26:51.563Z,2.90
2018-12-27T23:29:40.066Z,2.90
2018-12-27T23:32:28.245Z,2.90
2018-12-27T23:35:08.967Z,2.90
2018-12-27T23:37:49.971Z,2.80
2018-12-27T23:40:31.233Z,2.80
2018-12-27T23:43:11.641Z,2.80
2018-12-27T23:45:52.579Z,2.80
2018-12-27T23:48:33.309Z,2.80
2018-12-27T23:51:13.977Z,2.80
2018-12-27T23:53:55.783Z,2.80
2018-12-27T23:56:36.574Z,2.70
2018-12-27T23:59:17.962Z,2.70
